createdAt,value
2019-05-23T00:00:06.185Z,1015.24
2019-05-23T00:01:06.167Z,1015.28
2019-05-23T00:02:06.142Z,1015.23
2019-05-23T00:03:06.120Z,1015.24
2019-05-23T00:04:06.101Z,1015.26
2019-05-23T00:05:06.131Z,1015.29
2019-05-23T00:06:06.078Z,1015.28
2019-05-23T00:07:06.067Z,1015.31
2019-05-23T00:08:06.064Z,1015.26
2019-05-23T00:09:06.055Z,1015.30
2019-05-23T00:10:06.042Z,1015.26
2019-05-23T00:11:06.057Z,1015.27
2019-05-23T00:12:06.023Z,1015.29
2019-05-23T00:13:06.010Z,1015.29
2019-05-23T00:14:06.015Z,1015.24
2019-05-23T00:15:05.986Z,1015.26
2019-05-23T00:16:06.002Z,1015.29
2019-05-23T00:17:05.986Z,1015.31
2019-05-23T00:18:06.067Z,1015.31
2019-05-23T00:19:05.940Z,1015.31
2019-05-23T00:20:05.937Z,1015.34
2019-05-23T00:21:05.961Z,1015.31
2019-05-23T00:22:05.907Z,1015.30
2019-05-23T00:23:05.897Z,1015.34
2019-05-23T00:24:05.885Z,1015.31
2019-05-23T00:25:05.882Z,1015.29
2019-05-23T00:26:05.895Z,1015.25
2019-05-23T00:27:05.857Z,1015.26
2019-05-23T00:28:05.847Z,1015.25
2019-05-23T00:29:09.906Z,1015.30
2019-05-23T00:30:05.820Z,1015.26
2019-05-23T00:31:05.844Z,1015.25
2019-05-23T00:32:05.809Z,1015.24
2019-05-23T00:33:05.785Z,1015.18
2019-05-23T00:34:05.776Z,1015.25
2019-05-23T00:35:05.765Z,1015.23
2019-05-23T00:36:05.802Z,1015.21
2019-05-23T00:37:05.759Z,1015.24
2019-05-23T00:38:05.741Z,1015.14
2019-05-23T00:39:05.722Z,1015.17
2019-05-23T00:40:05.708Z,1015.21
2019-05-23T00:41:05.710Z,1015.23
2019-05-23T00:42:05.720Z,1015.17
2019-05-23T00:43:05.695Z,1015.19
2019-05-23T00:44:05.667Z,1015.23
2019-05-23T00:45:05.661Z,1015.13
2019-05-23T00:46:05.659Z,1015.14
2019-05-23T00:47:05.659Z,1015.19
2019-05-23T00:48:05.716Z,1015.19
2019-05-23T00:49:05.625Z,1015.19
2019-05-23T00:50:05.619Z,1015.18
2019-05-23T00:51:05.637Z,1015.20
2019-05-23T00:52:05.615Z,1015.16
2019-05-23T00:53:05.569Z,1015.15
2019-05-23T00:54:05.577Z,1015.12
2019-05-23T00:55:05.555Z,1015.15
2019-05-23T00:56:05.538Z,1015.14
2019-05-23T00:57:05.555Z,1015.12
2019-05-23T00:58:05.515Z,1015.11
2019-05-23T00:59:05.506Z,1015.15
2019-05-23T01:00:05.502Z,1015.12
2019-05-23T01:01:05.487Z,1015.09
2019-05-23T01:02:05.512Z,1015.07
2019-05-23T01:03:05.464Z,1015.10
2019-05-23T01:04:05.462Z,1015.05
2019-05-23T01:05:05.441Z,1015.10
2019-05-23T01:06:05.449Z,1015.08
2019-05-23T01:07:05.455Z,1015.04
2019-05-23T01:08:05.450Z,1015.10
2019-05-23T01:09:05.397Z,1015.02
2019-05-23T01:10:05.398Z,1015.07
2019-05-23T01:11:05.378Z,1015.07
2019-05-23T01:12:05.365Z,1015.08
2019-05-23T01:13:05.396Z,1015.08
2019-05-23T01:14:05.344Z,1015.05
2019-05-23T01:15:05.337Z,1015.05
2019-05-23T01:16:05.320Z,1015.04
2019-05-23T01:17:05.311Z,1014.98
2019-05-23T01:18:05.328Z,1015.00
2019-05-23T01:19:05.291Z,1015.03
2019-05-23T01:20:05.284Z,1015.04
2019-05-23T01:21:05.281Z,1015.00
2019-05-23T01:22:05.300Z,1015.03
2019-05-23T01:23:05.293Z,1014.96
2019-05-23T01:24:05.239Z,1014.96
2019-05-23T01:25:05.223Z,1014.97
2019-05-23T01:26:05.215Z,1014.98
2019-05-23T01:27:05.257Z,1014.95
2019-05-23T01:28:05.226Z,1014.94
2019-05-23T01:29:05.186Z,1014.98
2019-05-23T01:30:05.178Z,1014.99
2019-05-23T01:31:05.172Z,1014.95
2019-05-23T01:32:05.152Z,1014.98
2019-05-23T01:33:05.177Z,1014.93
2019-05-23T01:34:05.139Z,1014.97
2019-05-23T01:35:05.120Z,1014.95
2019-05-23T01:36:05.106Z,1014.98
2019-05-23T01:37:05.097Z,1014.98
2019-05-23T01:38:05.117Z,1014.95
2019-05-23T01:39:05.088Z,1014.98
2019-05-23T01:40:05.094Z,1014.92
2019-05-23T01:41:05.070Z,1014.91
2019-05-23T01:42:05.056Z,1014.97
2019-05-23T01:43:05.061Z,1014.90
2019-05-23T01:44:05.020Z,1014.93
2019-05-23T01:45:05.015Z,1014.93
2019-05-23T01:46:05.006Z,1014.94
2019-05-23T01:47:04.987Z,1014.93
2019-05-23T01:48:05.017Z,1014.93
2019-05-23T01:49:04.966Z,1014.95
2019-05-23T01:50:04.958Z,1014.89
2019-05-23T01:51:04.949Z,1014.88
2019-05-23T01:52:04.942Z,1014.87
2019-05-23T01:53:04.927Z,1014.88
2019-05-23T01:54:04.950Z,1014.87
2019-05-23T01:55:04.914Z,1014.85
2019-05-23T01:56:04.891Z,1014.87
2019-05-23T01:57:04.882Z,1014.84
2019-05-23T01:58:04.889Z,1014.79
2019-05-23T01:59:04.884Z,1014.81
2019-05-23T02:00:10.568Z,1014.82
2019-05-23T02:01:05.833Z,1014.82
2019-05-23T02:02:04.828Z,1014.84
2019-05-23T02:03:04.821Z,1014.82
2019-05-23T02:04:04.848Z,1014.84
2019-05-23T02:05:04.798Z,1014.78
2019-05-23T02:06:04.780Z,1014.81
2019-05-23T02:07:04.771Z,1014.80
2019-05-23T02:08:04.772Z,1014.78
2019-05-23T02:09:04.782Z,1014.78
2019-05-23T02:10:04.758Z,1014.76
2019-05-23T02:11:04.734Z,1014.74
2019-05-23T02:12:04.715Z,1014.73
2019-05-23T02:13:04.705Z,1014.75
2019-05-23T02:14:04.723Z,1014.74
2019-05-23T02:15:04.712Z,1014.77
2019-05-23T02:16:04.679Z,1014.77
2019-05-23T02:17:04.664Z,1014.68
2019-05-23T02:18:04.670Z,1014.79
2019-05-23T02:19:04.676Z,1014.70
2019-05-23T02:20:04.632Z,1014.75
2019-05-23T02:21:04.630Z,1014.72
2019-05-23T02:22:04.608Z,1014.69
2019-05-23T02:23:04.604Z,1014.74
2019-05-23T02:24:04.610Z,1014.74
2019-05-23T02:25:04.632Z,1014.68
2019-05-23T02:26:04.565Z,1014.71
2019-05-23T02:27:04.571Z,1014.70
2019-05-23T02:28:04.544Z,1014.72
2019-05-23T02:29:04.578Z,1014.74
2019-05-23T02:30:04.612Z,1014.71
2019-05-23T02:31:04.555Z,1014.68
2019-05-23T02:32:04.513Z,1014.68
2019-05-23T02:33:04.490Z,1014.72
2019-05-23T02:34:04.513Z,1014.74
2019-05-23T02:35:04.469Z,1014.70
2019-05-23T02:36:04.497Z,1014.71
2019-05-23T02:37:04.448Z,1014.70
2019-05-23T02:38:04.436Z,1014.70
2019-05-23T02:39:04.451Z,1014.71
2019-05-23T02:40:04.420Z,1014.64
2019-05-23T02:41:04.430Z,1014.66
2019-05-23T02:42:04.394Z,1014.61
2019-05-23T02:43:04.382Z,1014.67
2019-05-23T02:44:04.378Z,1014.68
2019-05-23T02:45:04.387Z,1014.65
2019-05-23T02:46:04.355Z,1014.66
2019-05-23T02:47:04.348Z,1014.68
2019-05-23T02:48:04.329Z,1014.60
2019-05-23T02:49:04.318Z,1014.63
2019-05-23T02:50:04.341Z,1014.67
2019-05-23T02:51:04.307Z,1014.66
2019-05-23T02:52:04.289Z,1014.69
2019-05-23T02:53:04.273Z,1014.58
2019-05-23T02:54:04.271Z,1014.64
2019-05-23T02:55:04.289Z,1014.61
2019-05-23T02:56:04.246Z,1014.57
2019-05-23T02:57:04.234Z,1014.61
2019-05-23T02:58:04.223Z,1014.59
2019-05-23T02:59:04.211Z,1014.59
2019-05-23T03:00:04.220Z,1014.60
2019-05-23T03:01:04.189Z,1014.58
2019-05-23T03:02:04.193Z,1014.61
2019-05-23T03:03:04.201Z,1014.59
2019-05-23T03:04:04.161Z,1014.54
2019-05-23T03:05:04.173Z,1014.57
2019-05-23T03:06:04.140Z,1014.54
2019-05-23T03:07:04.170Z,1014.53
2019-05-23T03:08:04.132Z,1014.54
2019-05-23T03:09:04.104Z,1014.59
2019-05-23T03:10:04.094Z,1014.49
2019-05-23T03:11:04.108Z,1014.53
2019-05-23T03:12:04.096Z,1014.53
2019-05-23T03:13:04.059Z,1014.59
2019-05-23T03:14:04.050Z,1014.50
2019-05-23T03:15:04.036Z,1014.53
2019-05-23T03:16:04.053Z,1014.56
2019-05-23T03:17:04.054Z,1014.52
2019-05-23T03:18:04.074Z,1014.56
2019-05-23T03:19:04.003Z,1014.52
2019-05-23T03:20:03.988Z,1014.54
2019-05-23T03:21:04.021Z,1014.54
2019-05-23T03:22:03.968Z,1014.52
2019-05-23T03:23:03.952Z,1014.46
2019-05-23T03:24:03.945Z,1014.50
2019-05-23T03:25:03.939Z,1014.51
2019-05-23T03:26:03.959Z,1014.47
2019-05-23T03:27:03.947Z,1014.49
2019-05-23T03:28:03.902Z,1014.47
2019-05-23T03:29:03.890Z,1014.49
2019-05-23T03:30:03.888Z,1014.42
2019-05-23T03:31:26.916Z,1014.42
2019-05-23T03:32:04.858Z,1014.46
2019-05-23T03:33:03.845Z,1014.41
2019-05-23T03:34:03.870Z,1014.41
2019-05-23T03:35:03.839Z,1014.43
2019-05-23T03:36:03.843Z,1014.44
2019-05-23T03:37:03.845Z,1014.43
2019-05-23T03:38:03.835Z,1014.42
2019-05-23T03:39:03.778Z,1014.43
2019-05-23T03:40:03.765Z,1014.45
2019-05-23T03:41:03.760Z,1014.44
2019-05-23T03:42:03.775Z,1014.47
2019-05-23T03:43:03.768Z,1014.48
2019-05-23T03:44:03.732Z,1014.46
2019-05-23T03:45:03.714Z,1014.39
2019-05-23T03:46:03.709Z,1014.39
2019-05-23T03:47:03.730Z,1014.37
2019-05-23T03:48:03.683Z,1014.38
2019-05-23T03:49:03.672Z,1014.36
2019-05-23T03:50:03.667Z,1014.38
2019-05-23T03:51:03.646Z,1014.35
2019-05-23T03:52:03.665Z,1014.36
2019-05-23T03:53:03.622Z,1014.38
2019-05-23T03:54:03.621Z,1014.37
2019-05-23T03:55:03.610Z,1014.32
2019-05-23T03:56:03.604Z,1014.36
2019-05-23T03:57:03.626Z,1014.34
2019-05-23T03:58:03.579Z,1014.38
2019-05-23T03:59:03.563Z,1014.37
2019-05-23T04:00:03.553Z,1014.39
2019-05-23T04:01:03.535Z,1014.37
2019-05-23T04:02:03.555Z,1014.39
2019-05-23T04:03:03.562Z,1014.38
2019-05-23T04:04:03.534Z,1014.37
2019-05-23T04:05:03.515Z,1014.35
2019-05-23T04:06:03.500Z,1014.39
2019-05-23T04:07:03.476Z,1014.43
2019-05-23T04:08:03.491Z,1014.35
2019-05-23T04:09:03.461Z,1014.41
2019-05-23T04:10:03.448Z,1014.34
2019-05-23T04:11:03.438Z,1014.40
2019-05-23T04:12:03.419Z,1014.39
2019-05-23T04:13:03.438Z,1014.35
2019-05-23T04:14:03.405Z,1014.37
2019-05-23T04:15:03.395Z,1014.34
2019-05-23T04:16:03.389Z,1014.36
2019-05-23T04:17:03.395Z,1014.36
2019-05-23T04:18:03.398Z,1014.39
2019-05-23T04:19:03.345Z,1014.36
2019-05-23T04:20:03.342Z,1014.41
2019-05-23T04:21:03.333Z,1014.38
2019-05-23T04:22:03.311Z,1014.38
2019-05-23T04:23:03.332Z,1014.37
2019-05-23T04:24:03.289Z,1014.35
2019-05-23T04:25:03.280Z,1014.36
2019-05-23T04:26:03.283Z,1014.36
2019-05-23T04:27:03.290Z,1014.39
2019-05-23T04:28:03.295Z,1014.33
2019-05-23T04:29:03.267Z,1014.37
2019-05-23T04:30:03.231Z,1014.37
2019-05-23T04:31:03.214Z,1014.35
2019-05-23T04:32:08.715Z,1014.36
2019-05-23T04:33:04.220Z,1014.32
2019-05-23T04:34:03.186Z,1014.35
2019-05-23T04:35:03.181Z,1014.32
2019-05-23T04:36:03.160Z,1014.32
2019-05-23T04:37:03.155Z,1014.27
2019-05-23T04:38:03.180Z,1014.33
2019-05-23T04:39:03.157Z,1014.34
2019-05-23T04:40:03.124Z,1014.32
2019-05-23T04:41:03.105Z,1014.34
2019-05-23T04:42:03.100Z,1014.32
2019-05-23T04:43:03.118Z,1014.31
2019-05-23T04:44:03.120Z,1014.25
2019-05-23T04:45:03.085Z,1014.30
2019-05-23T04:46:03.074Z,1014.31
2019-05-23T04:47:03.059Z,1014.28
2019-05-23T04:48:03.053Z,1014.34
2019-05-23T04:49:03.048Z,1014.34
2019-05-23T04:50:03.027Z,1014.32
2019-05-23T04:51:02.998Z,1014.28
2019-05-23T04:52:02.993Z,1014.34
2019-05-23T04:53:02.979Z,1014.31
2019-05-23T04:54:02.995Z,1014.30
2019-05-23T04:55:02.985Z,1014.26
2019-05-23T04:56:02.943Z,1014.24
2019-05-23T04:57:02.940Z,1014.24
2019-05-23T04:58:04.482Z,1014.25
2019-05-23T04:59:02.915Z,1014.23
2019-05-23T05:00:02.930Z,1014.30
2019-05-23T05:01:02.891Z,1014.26
2019-05-23T05:02:02.921Z,1014.28
2019-05-23T05:03:02.870Z,1014.31
2019-05-23T05:04:02.930Z,1014.26
2019-05-23T05:05:02.867Z,1014.27
2019-05-23T05:06:02.835Z,1014.26
2019-05-23T05:07:02.824Z,1014.34
2019-05-23T05:08:02.888Z,1014.34
2019-05-23T05:09:02.815Z,1014.32
2019-05-23T05:10:02.822Z,1014.30
2019-05-23T05:11:02.793Z,1014.27
2019-05-23T05:12:02.773Z,1014.36
2019-05-23T05:13:02.765Z,1014.38
2019-05-23T05:14:02.752Z,1014.32
2019-05-23T05:15:02.766Z,1014.34
2019-05-23T05:16:02.735Z,1014.42
2019-05-23T05:17:02.727Z,1014.36
2019-05-23T05:18:02.721Z,1014.38
2019-05-23T05:19:02.725Z,1014.36
2019-05-23T05:20:02.748Z,1014.40
2019-05-23T05:21:02.677Z,1014.44
2019-05-23T05:22:02.669Z,1014.42
2019-05-23T05:23:02.661Z,1014.41
2019-05-23T05:24:02.667Z,1014.39
2019-05-23T05:25:02.655Z,1014.40
2019-05-23T05:26:02.628Z,1014.39
2019-05-23T05:27:02.622Z,1014.43
2019-05-23T05:28:02.598Z,1014.42
2019-05-23T05:29:02.619Z,1014.39
2019-05-23T05:30:02.617Z,1014.45
2019-05-23T05:31:02.600Z,1014.36
2019-05-23T05:32:04.013Z,1014.43
2019-05-23T05:33:02.544Z,1014.42
2019-05-23T05:34:02.533Z,1014.39
2019-05-23T05:35:02.568Z,1014.45
2019-05-23T05:36:02.514Z,1014.49
2019-05-23T05:37:02.507Z,1014.44
2019-05-23T05:38:02.490Z,1014.41
2019-05-23T05:39:02.484Z,1014.45
2019-05-23T05:40:02.493Z,1014.43
2019-05-23T05:41:02.505Z,1014.43
2019-05-23T05:42:02.454Z,1014.47
2019-05-23T05:43:02.440Z,1014.43
2019-05-23T05:44:02.425Z,1014.43
2019-05-23T05:45:02.454Z,1014.46
2019-05-23T05:46:02.438Z,1014.45
2019-05-23T05:47:02.398Z,1014.51
2019-05-23T05:48:02.389Z,1014.47
2019-05-23T05:49:02.537Z,1014.49
2019-05-23T05:50:02.369Z,1014.50
2019-05-23T05:51:02.381Z,1014.49
2019-05-23T05:52:02.340Z,1014.51
2019-05-23T05:53:02.327Z,1014.48
2019-05-23T05:54:02.350Z,1014.53
2019-05-23T05:55:02.307Z,1014.54
2019-05-23T05:56:02.335Z,1014.53
2019-05-23T05:57:02.290Z,1014.53
2019-05-23T05:58:02.298Z,1014.51
2019-05-23T05:59:02.270Z,1014.52
2019-05-23T06:00:02.261Z,1014.56
2019-05-23T06:01:02.290Z,1014.49
2019-05-23T06:02:02.240Z,1014.53
2019-05-23T06:03:05.355Z,1014.53
2019-05-23T06:04:02.208Z,1014.57
2019-05-23T06:05:02.211Z,1014.54
2019-05-23T06:06:02.217Z,1014.57
2019-05-23T06:07:02.240Z,1014.58
2019-05-23T06:08:02.167Z,1014.58
2019-05-23T06:09:02.157Z,1014.53
2019-05-23T06:10:02.198Z,1014.59
2019-05-23T06:11:02.171Z,1014.60
2019-05-23T06:12:02.129Z,1014.59
2019-05-23T06:13:02.118Z,1014.61
2019-05-23T06:14:02.103Z,1014.59
2019-05-23T06:15:03.558Z,1014.59
2019-05-23T06:16:02.103Z,1014.59
2019-05-23T06:17:02.094Z,1014.63
2019-05-23T06:18:02.133Z,1014.64
2019-05-23T06:19:02.049Z,1014.61
2019-05-23T06:20:02.115Z,1014.63
2019-05-23T06:21:02.030Z,1014.64
2019-05-23T06:22:02.049Z,1014.66
2019-05-23T06:23:02.007Z,1014.67
2019-05-23T06:24:01.994Z,1014.67
2019-05-23T06:25:02.482Z,1014.67
2019-05-23T06:26:01.975Z,1014.62
2019-05-23T06:27:01.986Z,1014.70
2019-05-23T06:28:01.954Z,1014.69
2019-05-23T06:29:01.942Z,1014.70
2019-05-23T06:30:01.993Z,1014.69
2019-05-23T06:31:01.918Z,1014.70
2019-05-23T06:32:01.936Z,1014.67
2019-05-23T06:33:01.907Z,1014.69
2019-05-23T06:34:01.887Z,1014.72
2019-05-23T06:35:01.910Z,1014.68
2019-05-23T06:36:02.009Z,1014.69
2019-05-23T06:37:01.882Z,1014.70
2019-05-23T06:38:01.874Z,1014.73
2019-05-23T06:39:01.833Z,1014.70
2019-05-23T06:40:01.999Z,1014.69
2019-05-23T06:41:01.813Z,1014.67
2019-05-23T06:42:01.799Z,1014.74
2019-05-23T06:43:01.823Z,1014.68
2019-05-23T06:44:01.785Z,1014.75
2019-05-23T06:45:01.796Z,1014.68
2019-05-23T06:46:01.757Z,1014.70
2019-05-23T06:47:01.784Z,1014.69
2019-05-23T06:48:01.766Z,1014.60
2019-05-23T06:49:01.804Z,1014.62
2019-05-23T06:50:01.842Z,1014.70
2019-05-23T06:51:01.722Z,1014.64
2019-05-23T06:52:01.691Z,1014.62
2019-05-23T06:53:02.233Z,1014.61
2019-05-23T06:54:01.671Z,1014.61
2019-05-23T06:55:01.705Z,1014.68
2019-05-23T06:56:01.652Z,1014.54
2019-05-23T06:57:01.655Z,1014.61
2019-05-23T06:58:01.657Z,1014.61
2019-05-23T06:59:01.642Z,1014.60
2019-05-23T07:00:01.605Z,1014.54
2019-05-23T07:01:01.606Z,1014.60
2019-05-23T07:02:01.590Z,1014.62
2019-05-23T07:03:01.870Z,1014.60
2019-05-23T07:04:01.567Z,1014.61
2019-05-23T07:05:01.564Z,1014.64
2019-05-23T07:06:01.544Z,1014.59
2019-05-23T07:07:01.529Z,1014.66
2019-05-23T07:08:01.559Z,1014.59
2019-05-23T07:09:01.518Z,1014.62
2019-05-23T07:10:01.859Z,1014.62
2019-05-23T07:11:01.491Z,1014.66
2019-05-23T07:12:01.481Z,1014.65
2019-05-23T07:13:01.496Z,1014.60
2019-05-23T07:14:01.459Z,1014.58
2019-05-23T07:15:02.043Z,1014.62
2019-05-23T07:16:01.448Z,1014.63
2019-05-23T07:17:01.428Z,1014.62
2019-05-23T07:18:01.422Z,1014.51
2019-05-23T07:19:01.438Z,1014.61
2019-05-23T07:20:01.391Z,1014.63
2019-05-23T07:21:01.388Z,1014.57
2019-05-23T07:22:01.371Z,1014.59
2019-05-23T07:23:01.375Z,1014.57
2019-05-23T07:24:01.381Z,1014.63
2019-05-23T07:25:01.334Z,1014.59
2019-05-23T07:26:01.333Z,1014.64
2019-05-23T07:27:01.350Z,1014.61
2019-05-23T07:28:01.405Z,1014.65
2019-05-23T07:29:01.320Z,1014.69
2019-05-23T07:30:01.374Z,1014.64
2019-05-23T07:31:01.279Z,1014.64
2019-05-23T07:32:01.271Z,1014.62
2019-05-23T07:33:01.255Z,1014.65
2019-05-23T07:34:02.611Z,1014.68
2019-05-23T07:35:01.255Z,1014.66
2019-05-23T07:36:01.216Z,1014.66
2019-05-23T07:37:01.217Z,1014.70
2019-05-23T07:38:01.200Z,1014.68
2019-05-23T07:39:01.372Z,1014.66
2019-05-23T07:40:01.187Z,1014.64
2019-05-23T07:41:01.188Z,1014.63
2019-05-23T07:42:01.154Z,1014.66
2019-05-23T07:43:01.141Z,1014.68
2019-05-23T07:44:01.175Z,1014.66
2019-05-23T07:45:01.210Z,1014.65
2019-05-23T07:46:01.112Z,1014.64
2019-05-23T07:47:01.115Z,1014.67
2019-05-23T07:48:01.162Z,1014.61
2019-05-23T07:49:01.078Z,1014.61
2019-05-23T07:50:02.043Z,1014.62
2019-05-23T07:51:01.075Z,1014.61
2019-05-23T07:52:01.043Z,1014.60
2019-05-23T07:53:01.034Z,1014.61
2019-05-23T07:54:01.025Z,1014.65
2019-05-23T07:55:01.054Z,1014.64
2019-05-23T07:56:01.020Z,1014.59
2019-05-23T07:57:00.999Z,1014.62
2019-05-23T07:58:00.996Z,1014.62
2019-05-23T07:59:00.966Z,1014.60
2019-05-23T08:00:00.985Z,1014.59
2019-05-23T08:01:00.953Z,1014.59
2019-05-23T08:02:00.942Z,1014.61
2019-05-23T08:03:00.943Z,1014.59
2019-05-23T08:04:17.983Z,1014.62
2019-05-23T08:05:01.984Z,1014.57
2019-05-23T08:06:01.062Z,1014.60
2019-05-23T08:07:00.880Z,1014.53
2019-05-23T08:08:00.920Z,1014.53
2019-05-23T08:09:00.865Z,1014.60
2019-05-23T08:10:00.854Z,1014.56
2019-05-23T08:11:00.870Z,1014.46
2019-05-23T08:12:00.831Z,1014.48
2019-05-23T08:13:00.823Z,1014.52
2019-05-23T08:14:00.818Z,1014.49
2019-05-23T08:15:00.799Z,1014.48
2019-05-23T08:16:00.810Z,1014.51
2019-05-23T08:17:00.784Z,1014.47
2019-05-23T08:18:00.778Z,1014.51
2019-05-23T08:19:00.760Z,1014.50
2019-05-23T08:20:00.769Z,1014.47
2019-05-23T08:21:00.773Z,1014.49
2019-05-23T08:22:00.725Z,1014.47
2019-05-23T08:23:00.713Z,1014.55
2019-05-23T08:24:00.705Z,1014.45
2019-05-23T08:25:00.701Z,1014.43
2019-05-23T08:26:00.712Z,1014.50
2019-05-23T08:27:00.716Z,1014.48
2019-05-23T08:28:00.655Z,1014.45
2019-05-23T08:29:24.142Z,1014.47
2019-05-23T08:30:02.346Z,1014.44
2019-05-23T08:31:00.645Z,1014.40
2019-05-23T08:32:00.624Z,1014.42
2019-05-23T08:33:00.605Z,1014.44
2019-05-23T08:34:00.594Z,1014.43
2019-05-23T08:35:00.601Z,1014.42
2019-05-23T08:36:00.603Z,1014.45
2019-05-23T08:37:00.558Z,1014.42
2019-05-23T08:38:00.555Z,1014.45
2019-05-23T08:39:00.541Z,1014.45
2019-05-23T08:40:00.528Z,1014.43
2019-05-23T08:41:00.549Z,1014.37
2019-05-23T08:42:00.512Z,1014.41
2019-05-23T08:43:00.496Z,1014.42
2019-05-23T08:44:00.490Z,1014.39
2019-05-23T08:45:00.471Z,1014.41
2019-05-23T08:46:00.500Z,1014.44
2019-05-23T08:47:00.452Z,1014.38
2019-05-23T08:48:00.445Z,1014.46
2019-05-23T08:49:00.430Z,1014.43
2019-05-23T08:50:00.431Z,1014.46
2019-05-23T08:51:00.434Z,1014.46
2019-05-23T08:52:00.397Z,1014.46
2019-05-23T08:53:00.391Z,1014.45
2019-05-23T08:54:00.375Z,1014.44
2019-05-23T08:55:00.368Z,1014.38
2019-05-23T08:56:00.398Z,1014.42
2019-05-23T08:57:00.434Z,1014.43
2019-05-23T08:58:00.334Z,1014.42
2019-05-23T08:59:00.322Z,1014.41
2019-05-23T09:00:00.311Z,1014.37
2019-05-23T09:01:00.333Z,1014.37
2019-05-23T09:02:00.289Z,1014.34
2019-05-23T09:03:00.286Z,1014.30
2019-05-23T09:04:00.270Z,1014.28
2019-05-23T09:05:05.318Z,1014.25
2019-05-23T09:06:01.274Z,1014.25
2019-05-23T09:07:00.275Z,1014.23
2019-05-23T09:08:00.225Z,1014.25
2019-05-23T09:09:00.221Z,1014.30
2019-05-23T09:10:00.230Z,1014.28
2019-05-23T09:11:00.223Z,1014.22
2019-05-23T09:12:00.209Z,1014.21
2019-05-23T09:13:00.170Z,1014.21
2019-05-23T09:14:00.164Z,1014.16
2019-05-23T09:15:00.159Z,1014.20
2019-05-23T09:16:00.143Z,1014.25
2019-05-23T09:17:00.152Z,1014.18
2019-05-23T09:18:00.122Z,1014.23
2019-05-23T09:19:00.108Z,1014.24
2019-05-23T09:20:00.127Z,1014.18
2019-05-23T09:21:00.088Z,1014.21
2019-05-23T09:22:00.109Z,1014.24
2019-05-23T09:23:00.064Z,1014.16
2019-05-23T09:24:00.054Z,1014.20
2019-05-23T09:25:00.041Z,1014.21
2019-05-23T09:26:00.048Z,1014.19
2019-05-23T09:27:00.050Z,1014.24
2019-05-23T09:28:00.043Z,1014.21
2019-05-23T09:29:00.005Z,1014.17
2019-05-23T09:29:59.992Z,1014.15
2019-05-23T09:30:59.980Z,1014.19
2019-05-23T09:31:59.994Z,1014.15
2019-05-23T09:32:59.953Z,1014.14
2019-05-23T09:33:59.947Z,1014.12
2019-05-23T09:34:59.942Z,1014.10
2019-05-23T09:35:59.933Z,1014.18
2019-05-23T09:37:00.633Z,1014.19
2019-05-23T09:37:59.908Z,1014.12
2019-05-23T09:38:59.898Z,1014.19
2019-05-23T09:39:59.883Z,1014.16
2019-05-23T09:40:59.870Z,1014.20
2019-05-23T09:41:59.866Z,1014.14
2019-05-23T09:42:59.872Z,1014.15
2019-05-23T09:43:59.836Z,1014.15
2019-05-23T09:44:59.937Z,1014.16
2019-05-23T09:45:59.833Z,1014.13
2019-05-23T09:46:59.808Z,1014.09
2019-05-23T09:47:59.836Z,1014.13
2019-05-23T09:48:59.787Z,1014.07
2019-05-23T09:49:59.769Z,1014.06
2019-05-23T09:50:59.761Z,1014.05
2019-05-23T09:52:01.332Z,1014.09
2019-05-23T09:52:59.767Z,1014.05
2019-05-23T09:53:59.730Z,1014.04
2019-05-23T09:54:59.716Z,1014.06
2019-05-23T09:55:59.707Z,1014.04
2019-05-23T09:56:59.697Z,1014.03
2019-05-23T09:57:59.709Z,1013.94
2019-05-23T09:58:59.677Z,1013.96
2019-05-23T09:59:59.673Z,1014.03
2019-05-23T10:00:59.661Z,1014.01
2019-05-23T10:01:59.640Z,1013.98
2019-05-23T10:02:59.689Z,1013.98
2019-05-23T10:03:59.621Z,1013.97
2019-05-23T10:04:59.609Z,1014.00
2019-05-23T10:05:59.614Z,1014.00
2019-05-23T10:06:59.588Z,1013.95
2019-05-23T10:07:59.576Z,1013.97
2019-05-23T10:08:59.597Z,1014.00
2019-05-23T10:09:59.566Z,1013.97
2019-05-23T10:10:59.594Z,1013.92
2019-05-23T10:11:59.545Z,1013.92
2019-05-23T10:12:59.522Z,1013.95
2019-05-23T10:13:59.541Z,1013.85
2019-05-23T10:14:59.502Z,1013.88
2019-05-23T10:15:59.494Z,1013.91
2019-05-23T10:16:59.484Z,1013.86
2019-05-23T10:18:00.860Z,1013.88
2019-05-23T10:18:59.493Z,1013.91
2019-05-23T10:19:59.448Z,1013.84
2019-05-23T10:20:59.436Z,1013.83
2019-05-23T10:21:59.431Z,1013.83
2019-05-23T10:22:59.417Z,1013.81
2019-05-23T10:23:59.447Z,1013.78
2019-05-23T10:24:59.414Z,1013.78
2019-05-23T10:25:59.386Z,1013.82
2019-05-23T10:26:59.380Z,1013.85
2019-05-23T10:27:59.361Z,1013.79
2019-05-23T10:28:59.498Z,1013.80
2019-05-23T10:29:59.339Z,1013.75
2019-05-23T10:30:59.337Z,1013.76
2019-05-23T10:31:59.329Z,1013.69
2019-05-23T10:32:59.307Z,1013.71
2019-05-23T10:33:59.328Z,1013.73
2019-05-23T10:34:59.291Z,1013.67
2019-05-23T10:36:01.127Z,1013.69
2019-05-23T10:36:59.275Z,1013.66
2019-05-23T10:37:59.264Z,1013.66
2019-05-23T10:38:59.247Z,1013.65
2019-05-23T10:39:59.266Z,1013.62
2019-05-23T10:40:59.229Z,1013.64
2019-05-23T10:41:59.222Z,1013.68
2019-05-23T10:42:59.206Z,1013.58
2019-05-23T10:43:59.231Z,1013.61
2019-05-23T10:44:59.180Z,1013.52
2019-05-23T10:45:59.175Z,1013.54
2019-05-23T10:46:59.161Z,1013.47
2019-05-23T10:47:59.155Z,1013.53
2019-05-23T10:48:59.172Z,1013.53
2019-05-23T10:49:59.290Z,1013.59
2019-05-23T10:50:59.113Z,1013.54
2019-05-23T10:51:59.116Z,1013.50
2019-05-23T10:52:59.098Z,1013.50
2019-05-23T10:53:59.130Z,1013.46
2019-05-23T10:54:59.132Z,1013.42
2019-05-23T10:55:59.072Z,1013.43
2019-05-23T10:56:59.056Z,1013.42
2019-05-23T10:57:59.046Z,1013.41
2019-05-23T10:58:59.039Z,1013.39
2019-05-23T10:59:59.045Z,1013.41
2019-05-23T11:00:59.014Z,1013.38
2019-05-23T11:01:59.009Z,1013.35
2019-05-23T11:02:59.007Z,1013.34
2019-05-23T11:03:58.978Z,1013.38
2019-05-23T11:04:59.015Z,1013.38
2019-05-23T11:06:14.488Z,1013.39
2019-05-23T11:06:59.945Z,1013.35
2019-05-23T11:07:58.937Z,1013.35
2019-05-23T11:08:58.936Z,1013.28
2019-05-23T11:09:58.942Z,1013.30
2019-05-23T11:10:58.901Z,1013.30
2019-05-23T11:11:58.898Z,1013.24
2019-05-23T11:12:58.881Z,1013.28
2019-05-23T11:13:58.879Z,1013.28
2019-05-23T11:14:58.888Z,1013.31
2019-05-23T11:15:58.880Z,1013.25
2019-05-23T11:16:58.834Z,1013.26
2019-05-23T11:17:58.835Z,1013.25
2019-05-23T11:18:58.828Z,1013.27
2019-05-23T11:19:58.838Z,1013.20
2019-05-23T11:20:58.832Z,1013.22
2019-05-23T11:21:58.803Z,1013.27
2019-05-23T11:22:58.774Z,1013.21
2019-05-23T11:23:58.765Z,1013.23
2019-05-23T11:24:58.814Z,1013.24
2019-05-23T11:26:01.395Z,1013.19
2019-05-23T11:26:58.730Z,1013.12
2019-05-23T11:27:58.841Z,1013.12
2019-05-23T11:28:58.706Z,1013.09
2019-05-23T11:29:58.708Z,1013.16
2019-05-23T11:30:58.744Z,1013.20
2019-05-23T11:31:58.676Z,1013.20
2019-05-23T11:32:58.670Z,1013.12
2019-05-23T11:33:58.655Z,1013.17
2019-05-23T11:34:58.645Z,1013.18
2019-05-23T11:35:58.666Z,1013.15
2019-05-23T11:36:58.621Z,1013.09
2019-05-23T11:37:58.610Z,1013.12
2019-05-23T11:38:58.603Z,1013.13
2019-05-23T11:40:00.549Z,1013.14
2019-05-23T11:40:58.609Z,1013.18
2019-05-23T11:41:58.575Z,1013.15
2019-05-23T11:42:58.599Z,1013.10
2019-05-23T11:43:58.571Z,1013.10
2019-05-23T11:44:58.537Z,1013.08
2019-05-23T11:45:58.540Z,1013.16
2019-05-23T11:46:58.562Z,1013.18
2019-05-23T11:47:58.513Z,1013.13
2019-05-23T11:48:58.491Z,1013.18
2019-05-23T11:49:58.487Z,1013.17
2019-05-23T11:50:58.480Z,1013.12
2019-05-23T11:51:58.492Z,1013.09
2019-05-23T11:52:58.467Z,1013.10
2019-05-23T11:54:07.712Z,1013.09
2019-05-23T11:54:59.428Z,1013.07
2019-05-23T11:55:58.433Z,1013.09
2019-05-23T11:56:58.449Z,1013.10
2019-05-23T11:57:58.405Z,1013.07
2019-05-23T11:59:01.551Z,1013.07
2019-05-23T11:59:58.372Z,1013.07
2019-05-23T12:00:58.419Z,1013.05
2019-05-23T12:01:58.388Z,1013.05
2019-05-23T12:02:58.345Z,1013.13
2019-05-23T12:03:58.358Z,1013.01
2019-05-23T12:04:58.344Z,1012.99